VTSP/HKT METAR and TAF weather

Enter ICAO airport designator
Station Type Date Time Source
VTSP METAR 2018/12/18 19:30 UTC NOAA

VTSP 181930Z 00000KT 8000 -RA FEW020 SCT100 25/23 Q1011 NOSIG


Station Type Date Time Source
VTSP Decoded METAR 2018/12/18 19:30 UTC NOAA

Phuket Airport, Thailand (VTSP) 08-07N 098-19E 10M
Dec 18, 2018 - 02:30 PM EST / 2018.12.18 1930 UTC
Wind: Calm:0
Visibility: 4 mile(s):0
Sky conditions: partly cloudy
Weather: light rain
Temperature: 77 F (25 C)
Dew Point: 73 F (23 C)
Relative Humidity: 88%
Pressure (altimeter): 29.85 in. Hg (1011 hPa)
ob: VTSP 181930Z 00000KT 8000 -RA FEW020 SCT100 25/23 Q1011 NOSIG
cycle: 19

Station Type Date Time Source
VTSP TAF 2018/12/18 18:39 UTC NOAA

TAF VTSP 181700Z 1818/1924 00000KT 8000 FEW020 BKN100
BECMG 1900/1902 08010KT 9999
TEMPO 1908/1912 08010G25KT 5000 TSRA FEW018CB SCT020 BKN100
BECMG 1912/1914 00000KT 8000


Example: see airport list